Time;durP1;ratioP1;P1;durP2;ratioP2;P2;SDS_P1;SDS_P2;PMS_P1;PMS_P2;Temp;Humidity;BMP_temperature;BMP_pressure;BME280_temperature;BME280_humidity;BME280_pressure;Samples;Min_cycle;Max_cycle;Signal;HPM_P1;HPM_P2
2023/08/14 00:01:45;;;;;;;3.92;1.15;;;;;;;17.71;83.45;101662.09;5017294;28;96771;-27
2023/08/14 00:04:11;;;;;;;3.05;1.08;;;;;;;17.72;83.64;101661.09;5016796;28;97353;-27
2023/08/14 00:06:36;;;;;;;5.43;1.00;;;;;;;17.75;83.59;101671.78;5016066;28;97927;-27
2023/08/14 00:09:01;;;;;;;2.88;0.95;;;;;;;17.75;83.07;101669.06;5015958;28;96731;-27
2023/08/14 00:11:27;;;;;;;3.08;1.13;;;;;;;17.70;83.89;101663.06;5016694;28;96848;-27
2023/08/14 00:13:55;;;;;;;6.35;1.30;;;;;;;17.63;83.98;101662.66;5016353;28;99294;-28
2023/08/14 00:16:21;;;;;;;3.60;1.40;;;;;;;17.68;84.00;101667.78;5015001;28;100856;-26
2023/08/14 00:18:46;;;;;;;2.28;1.02;;;;;;;17.62;84.09;101662.81;5016663;28;96780;-27
2023/08/14 00:21:12;;;;;;;2.30;1.38;;;;;;;17.60;83.94;101657.44;5016748;28;96783;-26
2023/08/14 00:23:38;;;;;;;3.40;1.42;;;;;;;17.65;84.22;101664.44;5016178;28;97791;-27
2023/08/14 00:26:04;;;;;;;2.05;1.13;;;;;;;17.59;84.72;101649.31;5015195;28;100888;-27
2023/08/14 00:28:29;;;;;;;4.03;1.20;;;;;;;17.61;84.27;101647.34;5015269;28;96709;-27
2023/08/14 00:30:54;;;;;;;3.05;1.38;;;;;;;17.59;84.50;101646.59;5016689;28;96782;-27
2023/08/14 00:33:20;;;;;;;4.10;1.50;;;;;;;17.60;84.67;101649.22;5015728;28;97839;-28
2023/08/14 00:35:45;;;;;;;4.30;1.63;;;;;;;17.60;84.52;101646.47;5016150;28;97853;-27
2023/08/14 00:38:10;;;;;;;2.53;1.35;;;;;;;17.63;83.93;101648.09;5016377;28;96845;-27
2023/08/14 00:40:36;;;;;;;4.50;1.88;;;;;;;17.60;84.74;101642.88;5016537;28;96757;-27
2023/08/14 00:43:01;;;;;;;4.10;1.90;;;;;;;17.57;85.25;101630.28;5016210;28;97980;-27
2023/08/14 00:45:27;;;;;;;3.60;1.38;;;;;;;17.59;85.13;101643.84;5016252;28;97460;-27
2023/08/14 00:47:54;;;;;;;3.28;1.70;;;;;;;17.53;85.23;101633.38;5013811;28;96866;-27
2023/08/14 00:50:19;;;;;;;4.22;1.85;;;;;;;17.53;84.56;101641.59;5015253;28;96615;-27
2023/08/14 00:52:48;;;;;;;2.03;1.30;;;;;;;17.58;84.95;101644.84;5015657;28;98001;-26
2023/08/14 00:55:18;;;;;;;4.07;1.90;;;;;;;17.56;85.16;101633.13;5014330;28;100959;-26
2023/08/14 00:57:44;;;;;;;2.70;1.48;;;;;;;17.52;85.60;101639.84;5014236;28;96658;-27
2023/08/14 01:00:11;;;;;;;5.85;1.80;;;;;;;17.47;85.37;101628.38;5014572;28;96937;-27
2023/08/14 01:02:37;;;;;;;5.00;1.58;;;;;;;17.51;85.09;101635.38;5014146;28;101048;-27
2023/08/14 01:05:03;;;;;;;3.17;1.48;;;;;;;17.47;85.18;101639.34;5014132;28;100983;-27
2023/08/14 01:07:31;;;;;;;2.65;1.40;;;;;;;17.37;85.34;101626.34;5015149;28;96962;-27
2023/08/14 01:09:57;;;;;;;3.60;1.13;;;;;;;17.43;85.76;101633.22;5015715;28;96842;-26
2023/08/14 01:12:42;;;;;;;1.38;0.85;;;;;;;17.44;85.43;101634.09;5014044;28;101477;-27
2023/08/14 01:15:14;;;;;;;3.45;1.48;;;;;;;17.40;85.07;101631.63;5015796;28;99296;-27
2023/08/14 01:17:46;;;;;;;4.00;1.38;;;;;;;17.40;84.97;101623.41;5014019;28;96785;-29
2023/08/14 01:20:14;;;;;;;2.42;1.42;;;;;;;17.37;84.68;101615.41;5014410;28;96770;-27
2023/08/14 01:22:49;;;;;;;4.47;1.50;;;;;;;17.43;84.51;101621.41;5013463;28;101011;-29
2023/08/14 01:25:32;;;;;;;4.45;1.50;;;;;;;17.40;85.85;101626.13;5015182;28;99265;-27
2023/08/14 01:27:59;;;;;;;3.13;1.52;;;;;;;17.36;85.27;101619.13;5014231;28;96674;-28
2023/08/14 01:30:24;;;;;;;5.53;1.50;;;;;;;17.38;84.79;101614.41;5014168;28;96826;-27
2023/08/14 01:32:50;;;;;;;3.97;1.48;;;;;;;17.35;85.14;101605.56;5015287;28;97985;-27
2023/08/14 01:35:18;;;;;;;6.10;1.92;;;;;;;17.38;84.67;101608.94;5013606;28;100915;-27
2023/08/14 01:37:46;;;;;;;3.28;1.67;;;;;;;17.39;85.17;101610.69;5013711;28;96766;-26
2023/08/14 01:40:46;;;;;;;6.00;2.00;;;;;;;17.36;85.48;101608.19;5015530;28;96846;-27
2023/08/14 01:43:24;;;;;;;3.35;1.65;;;;;;;17.34;85.22;101601.09;5011065;28;101058;-27
2023/08/14 01:45:52;;;;;;;3.38;1.73;;;;;;;17.31;85.34;101601.34;5013639;28;101257;-27
2023/08/14 01:48:21;;;;;;;3.13;1.40;;;;;;;17.27;85.37;101592.47;5013326;28;96694;-26
2023/08/14 01:50:48;;;;;;;6.97;1.63;;;;;;;17.23;85.02;101577.25;5013774;28;96740;-27
2023/08/14 01:53:14;;;;;;;10.00;1.85;;;;;;;17.26;84.69;101589.88;5013362;28;101261;-27
2023/08/14 01:55:39;;;;;;;2.05;1.50;;;;;;;17.22;85.01;101577.41;5014750;28;99578;-27
2023/08/14 01:58:05;;;;;;;4.35;1.90;;;;;;;17.18;85.67;101574.00;5015033;28;96736;-27
2023/08/14 02:00:33;;;;;;;6.35;1.95;;;;;;;17.17;84.88;101577.75;5015134;28;96812;-27
2023/08/14 02:03:00;;;;;;;6.72;1.85;;;;;;;17.15;85.20;101580.59;5013298;28;101108;-27
2023/08/14 02:05:25;;;;;;;4.25;2.03;;;;;;;17.15;85.00;101579.75;5013655;28;99274;-27
2023/08/14 02:07:51;;;;;;;5.25;1.80;;;;;;;17.13;85.42;101566.16;5014302;28;96810;-27
2023/08/14 02:10:16;;;;;;;3.42;1.50;;;;;;;17.17;85.21;101572.28;5015174;28;96769;-27
2023/08/14 02:12:41;;;;;;;2.03;1.17;;;;;;;17.12;85.47;101558.09;5014248;28;97363;-27
2023/08/14 02:15:07;;;;;;;2.78;1.20;;;;;;;17.11;85.17;101561.78;5013554;28;97284;-27
2023/08/14 02:17:32;;;;;;;2.92;1.45;;;;;;;17.08;85.03;101559.31;5015065;28;96606;-27
2023/08/14 02:19:58;;;;;;;2.15;1.25;;;;;;;17.13;85.11;101573.50;5014899;28;96774;-27
2023/08/14 02:22:23;;;;;;;2.03;1.20;;;;;;;17.08;85.13;101553.84;5014284;28;97621;-26
2023/08/14 02:24:49;;;;;;;2.30;1.48;;;;;;;17.05;85.20;101565.03;5014817;28;97025;-28
2023/08/14 02:27:14;;;;;;;4.32;1.63;;;;;;;17.03;85.31;101570.59;5014746;28;96495;-27
2023/08/14 02:29:39;;;;;;;1.45;0.98;;;;;;;16.96;85.19;101563.88;5015203;28;96802;-27
2023/08/14 02:32:05;;;;;;;3.05;1.55;;;;;;;16.96;85.38;101572.94;5014413;28;98215;-28
2023/08/14 02:34:41;;;;;;;4.07;1.48;;;;;;;16.92;85.73;101565.97;5014459;28;97574;-27
2023/08/14 02:37:07;;;;;;;5.70;1.52;;;;;;;16.87;85.23;101562.69;5012521;28;96581;-27
2023/08/14 02:39:32;;;;;;;3.35;1.55;;;;;;;16.84;85.24;101559.34;5014396;28;96857;-26
2023/08/14 02:41:58;;;;;;;3.15;1.50;;;;;;;16.83;85.30;101563.94;5014221;28;97505;-27
2023/08/14 02:44:23;;;;;;;4.22;1.25;;;;;;;16.84;85.37;101570.28;5014335;28;97751;-27
2023/08/14 02:46:48;;;;;;;4.57;1.95;;;;;;;16.79;85.35;101558.81;5014790;28;96721;-27
2023/08/14 02:49:13;;;;;;;2.40;1.60;;;;;;;16.78;85.15;101555.19;5014725;28;96792;-27
2023/08/14 02:51:39;;;;;;;2.47;1.10;;;;;;;16.76;85.43;101563.50;5013996;28;97783;-28
2023/08/14 02:54:04;;;;;;;1.08;0.75;;;;;;;16.73;85.52;101557.38;5014634;28;97964;-28
2023/08/14 02:56:30;;;;;;;4.65;0.90;;;;;;;16.71;85.58;101570.31;5014594;28;96443;-27
2023/08/14 02:58:55;;;;;;;2.88;0.95;;;;;;;16.70;85.69;101565.81;5014554;28;96727;-28
2023/08/14 03:01:20;;;;;;;2.05;1.17;;;;;;;16.63;86.13;101562.69;5013585;28;97387;-27
2023/08/14 03:03:45;;;;;;;2.33;1.30;;;;;;;16.64;85.40;101571.78;5014142;28;97256;-27
2023/08/14 03:06:11;;;;;;;3.17;1.30;;;;;;;16.64;85.72;101574.50;5014111;28;96850;-27
2023/08/14 03:08:36;;;;;;;4.90;1.48;;;;;;;16.62;85.65;101573.75;5014315;28;96747;-28
2023/08/14 03:11:01;;;;;;;5.38;1.60;;;;;;;16.61;85.12;101572.84;5015556;28;97925;-27
2023/08/14 03:13:27;;;;;;;5.53;1.52;;;;;;;16.54;85.58;101566.09;5017445;28;97683;-27
2023/08/14 03:15:52;;;;;;;6.38;1.50;;;;;;;16.53;85.85;101565.22;5017644;28;96608;-27
2023/08/14 03:18:17;;;;;;;4.00;1.40;;;;;;;16.53;85.16;101567.97;5017828;28;96845;-27
2023/08/14 03:20:43;;;;;;;6.03;1.52;;;;;;;16.53;85.61;101567.97;5017058;28;101207;-27
2023/08/14 03:23:08;;;;;;;3.90;1.50;;;;;;;16.59;86.00;101576.69;5017824;28;97332;-27
2023/08/14 03:25:33;;;;;;;4.18;1.10;;;;;;;16.56;85.58;101575.97;5017093;28;96512;-26
2023/08/14 03:27:59;;;;;;;3.10;1.40;;;;;;;16.51;85.61;101569.94;5017542;28;96830;-27
2023/08/14 03:30:24;;;;;;;3.03;1.40;;;;;;;16.53;85.55;101567.09;5017171;28;97958;-28
2023/08/14 03:32:50;;;;;;;5.15;1.40;;;;;;;16.48;85.79;101564.72;5017576;28;97172;-27
2023/08/14 03:35:16;;;;;;;4.75;1.23;;;;;;;16.48;86.02;101564.72;5015585;28;96662;-27
2023/08/14 03:37:41;;;;;;;1.95;1.45;;;;;;;16.49;85.99;101551.91;5017333;28;96777;-27
2023/08/14 03:40:08;;;;;;;2.00;1.23;;;;;;;16.45;85.87;101564.09;5017083;28;97450;-26
2023/08/14 03:42:33;;;;;;;2.90;1.45;;;;;;;16.44;86.04;101571.38;5015818;28;100767;-27
2023/08/14 03:44:58;;;;;;;2.00;1.13;;;;;;;16.42;86.12;101567.94;5017294;28;96659;-27
2023/08/14 03:47:24;;;;;;;2.20;1.08;;;;;;;16.42;86.46;101569.75;5017260;28;96785;-27
2023/08/14 03:49:49;;;;;;;3.08;1.10;;;;;;;16.41;85.92;101566.16;5016314;28;97805;-28
2023/08/14 03:52:14;;;;;;;4.15;1.30;;;;;;;16.39;85.99;101570.88;5016951;28;97866;-27
2023/08/14 03:54:40;;;;;;;6.97;1.40;;;;;;;16.39;86.48;101570.88;5017118;28;96513;-27
2023/08/14 03:57:05;;;;;;;3.38;1.17;;;;;;;16.39;86.31;101570.00;5017115;28;96831;-27
2023/08/14 03:59:31;;;;;;;1.75;1.13;;;;;;;16.38;86.36;101562.81;5016547;28;99233;-27
2023/08/14 04:01:56;;;;;;;3.20;1.58;;;;;;;16.36;86.07;101568.38;5016416;28;99833;-27
2023/08/14 04:04:21;;;;;;;5.72;2.00;;;;;;;16.38;86.59;101571.00;5015267;28;96643;-27
2023/08/14 04:06:47;;;;;;;3.92;1.83;;;;;;;16.39;86.22;101573.59;5016821;28;96808;-27
2023/08/14 04:09:13;;;;;;;5.85;1.95;;;;;;;16.39;86.33;101568.13;5015082;28;99342;-27
2023/08/14 04:11:39;;;;;;;6.00;2.28;;;;;;;16.39;86.05;101561.78;5016612;28;97307;-27
2023/08/14 04:14:05;;;;;;;4.13;1.88;;;;;;;16.38;85.99;101563.66;5014900;28;96563;-27
2023/08/14 04:16:43;;;;;;;6.85;2.47;;;;;;;16.41;86.27;101570.75;5016826;28;96713;-27
2023/08/14 04:19:18;;;;;;;4.38;2.00;;;;;;;16.39;86.44;101561.78;5014930;28;101564;-27
2023/08/14 04:21:43;;;;;;;5.10;1.73;;;;;;;16.32;86.60;101548.56;5016049;28;99383;-27
2023/08/14 04:24:09;;;;;;;2.83;1.17;;;;;;;16.32;86.16;101554.03;5016815;28;96659;-28
2023/08/14 04:26:36;;;;;;;3.55;1.58;;;;;;;16.32;86.60;101558.63;5016370;28;97003;-28
2023/08/14 04:29:09;;;;;;;1.58;1.08;;;;;;;16.30;86.55;101558.78;5014726;28;101128;-27
2023/08/14 04:31:37;;;;;;;4.80;1.40;;;;;;;16.30;86.69;101560.63;5016649;28;98412;-27
2023/08/14 04:34:03;;;;;;;3.72;1.40;;;;;;;16.32;86.48;101554.03;5015081;28;96743;-27
2023/08/14 04:36:33;;;;;;;3.28;1.15;;;;;;;16.34;86.57;101545.72;5015139;28;96813;-27
2023/08/14 04:38:59;;;;;;;2.50;1.50;;;;;;;16.32;86.31;101536.78;5015290;28;97604;-27
2023/08/14 04:41:26;;;;;;;4.20;1.67;;;;;;;16.33;86.15;101535.78;5014658;28;101134;-27
2023/08/14 04:43:52;;;;;;;3.50;1.40;;;;;;;16.33;85.92;101538.53;5014702;28;96498;-28
2023/08/14 04:46:35;;;;;;;2.53;1.60;;;;;;;16.40;86.10;101539.81;5016660;28;96790;-27
2023/08/14 04:49:01;;;;;;;2.58;1.15;;;;;;;16.42;86.29;101542.41;5014372;28;101048;-27
2023/08/14 04:51:27;;;;;;;3.38;1.30;;;;;;;16.40;85.91;101525.25;5014558;28;100782;-27
2023/08/14 04:53:54;;;;;;;4.03;1.58;;;;;;;16.46;85.76;101533.88;5014799;28;96537;-27
2023/08/14 04:56:19;;;;;;;3.22;1.35;;;;;;;16.49;85.81;101525.47;5015224;28;96820;-28
2023/08/14 04:58:45;;;;;;;3.33;1.58;;;;;;;16.49;85.76;101528.19;5015897;28;97932;-28
2023/08/14 05:01:10;;;;;;;2.65;1.33;;;;;;;16.46;85.98;101514.72;5015643;28;97763;-27
2023/08/14 05:03:36;;;;;;;2.17;1.15;;;;;;;16.52;85.70;101516.16;5015583;28;96654;-27
2023/08/14 05:06:01;;;;;;;1.98;1.27;;;;;;;16.54;85.60;101516.88;5015487;28;96851;-27
2023/08/14 05:08:27;;;;;;;4.50;1.55;;;;;;;16.58;85.69;101523.00;5015411;28;97576;-27
2023/08/14 05:10:54;;;;;;;1.92;1.30;;;;;;;16.58;85.62;101517.53;5015749;28;97864;-27
2023/08/14 05:13:19;;;;;;;5.10;1.25;;;;;;;16.58;86.06;101517.53;5014361;28;96634;-27
2023/08/14 05:15:49;;;;;;;3.55;1.48;;;;;;;16.63;85.70;101528.97;5015951;28;96765;-27
2023/08/14 05:18:15;;;;;;;1.95;1.20;;;;;;;16.60;86.50;101529.22;5014045;28;99447;-27
2023/08/14 05:20:44;;;;;;;4.32;1.33;;;;;;;16.64;86.20;101531.63;5014303;28;101225;-27
2023/08/14 05:23:11;;;;;;;2.75;1.35;;;;;;;16.61;86.43;101523.63;5015788;28;96552;-27
2023/08/14 05:25:37;;;;;;;2.10;1.35;;;;;;;16.67;86.02;101527.78;5014029;28;96801;-27
2023/08/14 05:28:04;;;;;;;4.50;1.63;;;;;;;16.68;86.40;101533.09;5014940;28;98100;-27
2023/08/14 05:30:29;;;;;;;2.83;1.63;;;;;;;16.67;85.99;101525.91;5013881;28;102244;-27
2023/08/14 05:32:54;;;;;;;4.43;1.42;;;;;;;16.70;85.87;101528.38;5014988;28;96564;-29
2023/08/14 05:35:23;;;;;;;3.53;1.95;;;;;;;16.66;86.21;101517.78;5015506;28;96831;-27
2023/08/14 05:37:55;;;;;;;3.20;1.58;;;;;;;16.73;86.46;101528.19;5014551;28;99380;-28
2023/08/14 05:40:20;;;;;;;3.35;1.70;;;;;;;16.74;86.06;101524.44;5014620;28;99258;-27
2023/08/14 05:43:05;;;;;;;2.72;1.70;;;;;;;16.77;86.46;101524.19;5014930;28;96734;-27
2023/08/14 05:45:31;;;;;;;2.40;1.48;;;;;;;16.80;86.25;101520.38;5014455;28;96617;-27
2023/08/14 05:47:57;;;;;;;3.47;2.00;;;;;;;16.78;86.20;101514.16;5011100;28;100001;-28
2023/08/14 05:50:23;;;;;;;3.10;1.70;;;;;;;16.82;85.70;101525.75;5012665;28;101662;-27
2023/08/14 05:52:48;;;;;;;3.33;1.98;;;;;;;16.83;85.85;101516.53;5014222;28;96796;-28
2023/08/14 05:55:15;;;;;;;3.85;1.73;;;;;;;16.91;85.67;101530.50;5014843;28;96750;-27
2023/08/14 05:57:40;;;;;;;5.90;2.15;;;;;;;16.94;85.15;101533.00;5012958;28;101058;-27
2023/08/14 06:00:07;;;;;;;4.55;1.95;;;;;;;17.04;85.09;101544.09;5014374;28;98416;-27
2023/08/14 06:02:33;;;;;;;5.22;1.77;;;;;;;17.06;85.08;101547.59;5013437;28;96761;-27
2023/08/14 06:04:58;;;;;;;4.97;1.90;;;;;;;17.08;84.82;101545.63;5014980;28;96825;-27
2023/08/14 06:07:24;;;;;;;4.18;1.83;;;;;;;17.06;84.83;101534.78;5011382;28;98577;-27
2023/08/14 06:09:49;;;;;;;5.13;1.83;;;;;;;17.11;85.11;101543.53;5012294;28;99635;-31
2023/08/14 06:12:14;;;;;;;2.67;1.45;;;;;;;17.11;85.08;101539.91;5012606;28;96665;-30
2023/08/14 06:14:40;;;;;;;3.67;1.90;;;;;;;17.18;84.58;101544.78;5012416;28;96878;-27
2023/08/14 06:17:05;;;;;;;3.25;1.40;;;;;;;17.24;83.97;101532.47;5011622;28;98466;-27
2023/08/14 06:19:31;;;;;;;3.28;1.55;;;;;;;17.29;84.09;101541.19;5012302;28;97751;-30
2023/08/14 06:21:57;;;;;;;3.95;1.95;;;;;;;17.28;84.29;101528.50;5013700;28;97307;-28
2023/08/14 06:24:22;;;;;;;2.92;1.88;;;;;;;17.33;83.52;101533.63;5014810;28;96837;-26
2023/08/14 06:26:48;;;;;;;2.58;1.35;;;;;;;17.35;83.26;101524.28;5014206;28;99323;-26
2023/08/14 06:29:13;;;;;;;6.07;1.77;;;;;;;17.46;83.66;101531.63;5014517;28;97884;-27
2023/08/14 06:31:39;;;;;;;3.47;1.73;;;;;;;17.51;82.74;101536.75;5014602;28;96732;-27
2023/08/14 06:34:05;;;;;;;2.95;1.42;;;;;;;17.63;82.79;101541.25;5015120;28;96758;-27
2023/08/14 06:36:30;;;;;;;4.47;1.70;;;;;;;17.71;82.21;101544.25;5014213;28;97423;-27
2023/08/14 06:38:56;;;;;;;3.75;1.55;;;;;;;17.72;82.01;101534.16;5014280;28;97974;-27
2023/08/14 06:41:21;;;;;;;5.72;1.45;;;;;;;17.76;81.62;101547.50;5014141;28;96531;-27
2023/08/14 06:43:46;;;;;;;6.32;1.60;;;;;;;17.81;81.81;101549.91;5014580;28;96738;-27
2023/08/14 06:46:12;;;;;;;4.28;1.88;;;;;;;17.94;81.04;101545.16;5016167;28;97692;-27
2023/08/14 06:48:37;;;;;;;2.92;1.50;;;;;;;18.10;80.52;101549.38;5017776;28;97703;-27
2023/08/14 06:51:03;;;;;;;3.40;1.60;;;;;;;18.25;79.81;101551.72;5018107;28;96722;-28
2023/08/14 06:53:28;;;;;;;5.25;1.50;;;;;;;18.46;78.99;101546.31;5017895;28;96812;-27
2023/08/14 06:55:55;;;;;;;7.53;1.80;;;;;;;18.67;78.42;101535.41;5017502;28;98936;-27
2023/08/14 06:58:20;;;;;;;5.90;1.60;;;;;;;18.91;77.63;101534.34;5017740;28;99416;-27
2023/08/14 07:00:48;;;;;;;4.30;1.45;;;;;;;19.16;76.42;101541.31;5018025;28;96589;-27
2023/08/14 07:03:13;;;;;;;3.53;1.40;;;;;;;19.41;76.18;101526.31;5016604;28;96900;-27
2023/08/14 07:05:38;;;;;;;1.13;0.88;;;;;;;19.64;74.50;101543.53;5017014;28;97976;-26
2023/08/14 07:08:04;;;;;;;2.53;1.08;;;;;;;19.65;74.02;101549.88;5016633;28;99078;-27
2023/08/14 07:10:29;;;;;;;1.25;0.80;;;;;;;19.48;74.39;101544.00;5018224;28;96512;-27
2023/08/14 07:12:54;;;;;;;3.35;1.08;;;;;;;19.39;74.96;101564.03;5017939;28;96738;-27
2023/08/14 07:15:20;;;;;;;2.20;1.20;;;;;;;19.28;75.17;101553.13;5017541;28;97539;-26
2023/08/14 07:17:45;;;;;;;2.30;0.82;;;;;;;19.27;75.50;101548.63;5017141;28;99034;-27
2023/08/14 07:20:11;;;;;;;2.00;1.40;;;;;;;19.26;75.97;101561.50;5017283;28;96758;-27
2023/08/14 07:22:37;;;;;;;2.38;1.00;;;;;;;19.16;75.52;101556.94;5016532;28;96831;-27
2023/08/14 07:25:03;;;;;;;1.17;0.65;;;;;;;19.24;74.33;101557.16;5015768;28;101285;-27
2023/08/14 07:27:29;;;;;;;2.33;1.00;;;;;;;19.22;74.27;101548.19;5017244;28;97860;-26
2023/08/14 07:29:54;;;;;;;1.50;0.77;;;;;;;19.38;75.04;101551.31;5017092;28;96553;-27
2023/08/14 07:32:20;;;;;;;1.25;0.80;;;;;;;19.70;73.37;101551.25;5017160;28;96494;-27
2023/08/14 07:34:45;;;;;;;2.13;0.80;;;;;;;20.04;71.64;101550.09;5016719;28;99319;-27
2023/08/14 07:37:10;;;;;;;1.33;0.88;;;;;;;20.29;71.24;101546.84;5016689;28;98819;-27
2023/08/14 07:39:35;;;;;;;1.08;0.90;;;;;;;20.61;70.59;101543.03;5017498;28;96489;-27
2023/08/14 07:42:01;;;;;;;1.02;0.63;;;;;;;20.79;69.25;101529.44;5017419;28;96785;-27
2023/08/14 07:44:26;;;;;;;1.48;0.73;;;;;;;20.96;68.28;101514.06;5016973;28;97267;-27
2023/08/14 07:46:52;;;;;;;1.50;0.70;;;;;;;21.17;68.46;101513.91;5017239;28;97726;-27
2023/08/14 07:49:17;;;;;;;1.23;0.50;;;;;;;21.35;66.73;101503.84;5017309;28;96508;-27
2023/08/14 07:51:42;;;;;;;1.45;0.63;;;;;;;21.57;66.45;101512.81;5017195;28;96834;-27
2023/08/14 07:54:08;;;;;;;3.58;0.40;;;;;;;21.80;65.35;101527.09;5016381;28;97938;-28
2023/08/14 07:56:33;;;;;;;1.55;0.63;;;;;;;21.98;65.01;101511.50;5016325;28;98801;-26
2023/08/14 07:58:58;;;;;;;0.55;0.40;;;;;;;22.10;64.33;101491.97;5017043;28;96606;-27
2023/08/14 08:01:24;;;;;;;1.35;0.60;;;;;;;22.25;63.87;101502.34;5015703;28;96935;-27
2023/08/14 08:03:49;;;;;;;0.77;0.47;;;;;;;22.31;63.04;101509.16;5016604;28;97905;-27
2023/08/14 08:06:14;;;;;;;2.15;0.65;;;;;;;22.37;62.33;101496.63;5016530;28;97874;-27
2023/08/14 08:08:40;;;;;;;2.92;0.95;;;;;;;22.51;62.72;101490.56;5016435;28;96545;-27
2023/08/14 08:11:05;;;;;;;1.27;0.57;;;;;;;22.65;61.14;101491.91;5017376;28;96845;-27
2023/08/14 08:13:31;;;;;;;1.00;0.43;;;;;;;22.71;62.02;101499.56;5016609;28;97926;-27
2023/08/14 08:15:56;;;;;;;0.80;0.60;;;;;;;22.92;61.26;101504.75;5016524;28;97277;-27
2023/08/14 08:18:21;;;;;;;3.47;0.80;;;;;;;23.00;61.88;101509.50;5016702;28;96474;-28
2023/08/14 08:20:47;;;;;;;2.60;0.70;;;;;;;23.16;60.53;101501.34;5016631;28;96847;-26
2023/08/14 08:23:12;;;;;;;1.80;0.82;;;;;;;23.34;60.24;101492.19;5016272;28;97827;-26
2023/08/14 08:25:37;;;;;;;2.20;0.80;;;;;;;23.44;58.99;101493.78;5016212;28;98781;-27
2023/08/14 08:28:03;;;;;;;1.67;0.77;;;;;;;23.63;59.99;101491.84;5016761;28;96578;-27
2023/08/14 08:30:28;;;;;;;4.60;0.73;;;;;;;23.61;59.11;101492.00;5016331;28;96840;-27
2023/08/14 08:32:54;;;;;;;3.17;0.77;;;;;;;23.68;59.38;101506.91;5016396;28;97721;-27
2023/08/14 08:35:19;;;;;;;1.25;0.60;;;;;;;23.73;58.72;101506.41;5016430;28;97948;-27
2023/08/14 08:37:44;;;;;;;1.33;0.73;;;;;;;23.95;58.69;101519.72;5016475;28;96553;-28
2023/08/14 08:40:10;;;;;;;1.50;0.60;;;;;;;24.01;58.81;101509.88;5016509;28;96869;-27
2023/08/14 08:42:37;;;;;;;0.95;0.52;;;;;;;24.07;58.30;101511.94;5015572;28;97854;-26
2023/08/14 08:45:04;;;;;;;1.35;0.68;;;;;;;24.22;58.72;101505.78;5015785;28;98915;-27
2023/08/14 08:47:31;;;;;;;2.08;0.70;;;;;;;24.30;58.14;101508.59;5016139;28;96620;-28
2023/08/14 08:49:59;;;;;;;1.92;0.85;;;;;;;24.28;57.80;101511.50;5014866;28;97056;-27
2023/08/14 08:52:24;;;;;;;1.42;0.70;;;;;;;24.26;58.19;101512.72;5014349;28;101263;-27
2023/08/14 08:54:50;;;;;;;2.38;0.93;;;;;;;24.31;58.55;101518.63;5015785;28;97308;-27
2023/08/14 08:57:17;;;;;;;3.53;0.75;;;;;;;24.45;58.18;101515.19;5014786;28;96750;-28
2023/08/14 08:59:43;;;;;;;4.38;1.00;;;;;;;24.54;57.72;101525.28;5014918;28;96909;-27
2023/08/14 09:02:09;;;;;;;2.42;0.90;;;;;;;24.56;57.42;101509.38;5015578;28;97387;-30
2023/08/14 09:04:34;;;;;;;4.82;1.40;;;;;;;24.65;56.70;101510.25;5015553;28;99050;-27
2023/08/14 09:07:00;;;;;;;2.22;1.10;;;;;;;24.61;57.16;101508.88;5014995;28;96816;-28
2023/08/14 09:09:25;;;;;;;2.20;0.77;;;;;;;24.64;57.73;101499.34;5014814;28;96560;-28
2023/08/14 09:11:51;;;;;;;2.95;0.93;;;;;;;24.45;57.85;101495.81;5015414;28;99460;-26
2023/08/14 09:14:17;;;;;;;3.70;1.00;;;;;;;24.64;57.95;101485.50;5015751;28;97859;-27
2023/08/14 09:16:44;;;;;;;2.75;1.20;;;;;;;24.79;57.82;101489.34;5014363;28;96607;-27
2023/08/14 09:19:13;;;;;;;3.28;1.13;;;;;;;24.89;57.04;101495.56;5014262;28;96806;-27
2023/08/14 09:21:42;;;;;;;2.97;1.00;;;;;;;24.96;56.94;101491.06;5014173;28;101028;-27
2023/08/14 09:24:11;;;;;;;2.10;1.08;;;;;;;24.98;56.35;101486.22;5014179;28;101418;-27
2023/08/14 09:26:37;;;;;;;2.88;1.23;;;;;;;25.02;55.82;101489.50;5014230;28;96613;-27
2023/08/14 09:29:03;;;;;;;2.10;1.00;;;;;;;25.11;55.81;101473.72;5015836;28;96798;-27
2023/08/14 09:31:31;;;;;;;5.28;1.10;;;;;;;25.27;56.44;101484.84;5014615;28;97707;-27
2023/08/14 09:33:56;;;;;;;3.83;1.00;;;;;;;25.33;55.74;101472.16;5015186;28;97954;-27
2023/08/14 09:36:22;;;;;;;3.70;1.17;;;;;;;25.47;56.31;101477.00;5015762;28;96693;-27
2023/08/14 09:38:51;;;;;;;1.90;1.08;;;;;;;25.63;55.95;101474.16;5015435;28;96791;-27
2023/08/14 09:41:18;;;;;;;3.38;1.40;;;;;;;25.67;55.23;101471.91;5013689;28;100540;-27
2023/08/14 09:43:44;;;;;;;1.77;0.88;;;;;;;25.59;55.37;101469.16;5013610;28;100796;-29
2023/08/14 09:46:11;;;;;;;2.45;0.93;;;;;;;25.63;53.60;101465.84;5013782;28;96723;-27
2023/08/14 09:48:46;;;;;;;6.55;1.20;;;;;;;25.65;54.05;101460.13;5014228;28;96798;-27
2023/08/14 09:51:18;;;;;;;3.13;0.80;;;;;;;25.73;54.09;101462.88;5013402;28;101029;-27
2023/08/14 09:53:57;;;;;;;1.23;0.60;;;;;;;25.90;51.86;101457.28;5013429;28;100736;-27
2023/08/14 09:56:23;;;;;;;3.20;1.10;;;;;;;26.20;53.84;101463.91;5014509;28;96585;-27
2023/08/14 09:58:49;;;;;;;3.92;1.20;;;;;;;26.12;53.34;101456.47;5013822;28;96623;-27
2023/08/14 10:01:17;;;;;;;3.88;1.05;;;;;;;26.26;53.25;101450.13;5013416;28;101320;-28
2023/08/14 10:03:43;;;;;;;5.88;1.35;;;;;;;26.19;49.67;101445.50;5013538;28;100468;-27
2023/08/14 10:06:12;;;;;;;3.38;1.02;;;;;;;25.84;52.29;101443.06;5003838;28;96699;-26
2023/08/14 10:08:40;;;;;;;3.42;1.13;;;;;;;25.83;52.12;101438.53;4992181;28;96947;-27
2023/08/14 10:11:07;;;;;;;3.60;1.00;;;;;;;25.72;53.00;101458.38;4991592;28;101194;-27
2023/08/14 10:13:38;;;;;;;3.03;0.68;;;;;;;25.34;52.96;101452.59;4992327;28;101039;-27
2023/08/14 10:16:09;;;;;;;2.70;0.90;;;;;;;25.15;53.51;101452.94;4992129;28;96474;-27
2023/08/14 10:18:36;;;;;;;3.40;0.75;;;;;;;25.08;53.04;101444.44;4992187;28;96791;-27
2023/08/14 10:21:03;;;;;;;1.88;0.57;;;;;;;25.37;52.30;101440.28;4992552;28;97577;-27
2023/08/14 10:23:29;;;;;;;4.47;0.90;;;;;;;25.31;52.45;101433.50;4991626;28;101370;-27
2023/08/14 10:25:55;;;;;;;1.38;0.52;;;;;;;25.28;52.43;101421.91;4993357;28;96977;-28
2023/08/14 10:28:20;;;;;;;3.00;1.08;;;;;;;25.32;51.97;101440.78;4993267;28;96858;-28
2023/08/14 10:30:46;;;;;;;1.27;0.75;;;;;;;25.22;50.40;101440.13;4992775;28;99438;-27
2023/08/14 10:33:13;;;;;;;1.95;0.68;;;;;;;25.26;51.74;101447.03;5008238;28;98755;-27
2023/08/14 10:35:50;;;;;;;2.10;1.00;;;;;;;25.47;50.81;101440.06;5011767;28;96570;-27
2023/08/14 10:38:16;;;;;;;3.20;1.10;;;;;;;25.53;50.75;101440.22;5011388;28;97022;-27
2023/08/14 10:41:03;;;;;;;1.42;0.73;;;;;;;25.72;48.82;101441.72;5011592;28;101352;-27
2023/08/14 10:43:29;;;;;;;3.40;0.70;;;;;;;25.90;50.20;101429.53;5013005;28;97324;-27
2023/08/14 10:45:54;;;;;;;1.27;0.75;;;;;;;26.04;51.02;101435.16;5012477;28;96554;-26
2023/08/14 10:48:20;;;;;;;2.33;0.98;;;;;;;26.28;50.57;101439.72;5012888;28;96879;-28
2023/08/14 10:50:56;;;;;;;2.40;0.90;;;;;;;26.53;50.13;101438.66;5012636;28;97286;-27
2023/08/14 10:53:22;;;;;;;2.70;1.00;;;;;;;26.52;50.01;101431.41;5012953;28;97386;-27
2023/08/14 10:55:48;;;;;;;2.42;0.98;;;;;;;26.59;49.59;101437.97;5011685;28;96586;-27
2023/08/14 10:58:29;;;;;;;2.85;1.02;;;;;;;26.66;48.09;101431.47;5011561;28;96937;-27
2023/08/14 11:00:55;;;;;;;1.90;0.68;;;;;;;26.58;48.43;101423.22;5011363;28;101270;-28
2023/08/14 11:03:21;;;;;;;2.33;0.80;;;;;;;26.65;47.89;101413.09;5011392;28;100975;-27
2023/08/14 11:05:47;;;;;;;3.65;1.35;;;;;;;26.82;47.02;101411.03;5012862;28;96653;-27
2023/08/14 11:08:13;;;;;;;2.50;0.70;;;;;;;27.03;47.23;101412.19;4971161;28;1198473;-27
2023/08/14 11:10:40;;;;;;;1.48;0.90;;;;;;;27.11;46.70;101415.78;5012206;28;98066;-28
2023/08/14 11:13:06;;;;;;;1.95;0.90;;;;;;;26.85;47.05;101420.91;5012513;28;101047;-27
2023/08/14 11:15:33;;;;;;;6.60;1.00;;;;;;;26.96;48.26;101417.69;5012677;28;96607;-27
2023/08/14 11:17:59;;;;;;;2.85;1.00;;;;;;;27.11;46.03;101410.22;5012703;28;96906;-27
2023/08/14 11:20:27;;;;;;;1.65;0.63;;;;;;;27.29;47.14;101412.69;5013884;28;97999;-27
2023/08/14 11:22:53;;;;;;;2.10;0.77;;;;;;;27.36;47.57;101400.75;5012369;28;101236;-27